sensor_id;sensor_type;location;lat;lon;timestamp;P1;durP1;ratioP1;P2;durP2;ratioP2
1765;SDS011;880;52.452;8.656;2022-08-19T00:02:03;11.70;;;10.80;;
1765;SDS011;880;52.452;8.656;2022-08-19T00:04:31;11.87;;;10.87;;
1765;SDS011;880;52.452;8.656;2022-08-19T00:07:05;13.03;;;11.90;;
1765;SDS011;880;52.452;8.656;2022-08-19T00:09:33;12.60;;;11.33;;
1765;SDS011;880;52.452;8.656;2022-08-19T00:12:00;12.80;;;11.43;;
1765;SDS011;880;52.452;8.656;2022-08-19T00:14:28;13.13;;;11.80;;
1765;SDS011;880;52.452;8.656;2022-08-19T00:16:57;12.97;;;11.87;;
1765;SDS011;880;52.452;8.656;2022-08-19T00:19:24;12.57;;;11.47;;
1765;SDS011;880;52.452;8.656;2022-08-19T00:21:51;12.10;;;10.90;;
1765;SDS011;880;52.452;8.656;2022-08-19T00:24:18;11.23;;;10.33;;
1765;SDS011;880;52.452;8.656;2022-08-19T00:26:46;12.17;;;11.17;;
1765;SDS011;880;52.452;8.656;2022-08-19T00:29:14;11.73;;;10.77;;
1765;SDS011;880;52.452;8.656;2022-08-19T00:31:43;11.33;;;10.40;;
1765;SDS011;880;52.452;8.656;2022-08-19T00:34:12;12.80;;;11.53;;
1765;SDS011;880;52.452;8.656;2022-08-19T00:36:40;12.40;;;11.30;;
1765;SDS011;880;52.452;8.656;2022-08-19T00:39:08;13.00;;;11.87;;
1765;SDS011;880;52.452;8.656;2022-08-19T00:41:36;14.23;;;12.83;;
1765;SDS011;880;52.452;8.656;2022-08-19T00:46:42;15.37;;;13.77;;
1765;SDS011;880;52.452;8.656;2022-08-19T00:49:25;14.67;;;13.30;;
1765;SDS011;880;52.452;8.656;2022-08-19T00:54:38;15.30;;;13.17;;
1765;SDS011;880;52.452;8.656;2022-08-19T00:57:07;15.30;;;13.90;;
1765;SDS011;880;52.452;8.656;2022-08-19T00:59:39;16.70;;;15.00;;
1765;SDS011;880;52.452;8.656;2022-08-19T01:02:27;17.13;;;15.43;;
1765;SDS011;880;52.452;8.656;2022-08-19T01:04:54;15.60;;;14.07;;
1765;SDS011;880;52.452;8.656;2022-08-19T01:07:22;19.83;;;15.60;;
1765;SDS011;880;52.452;8.656;2022-08-19T01:09:49;18.47;;;16.57;;
1765;SDS011;880;52.452;8.656;2022-08-19T01:12:16;18.83;;;17.00;;
1765;SDS011;880;52.452;8.656;2022-08-19T01:14:45;15.00;;;13.70;;
1765;SDS011;880;52.452;8.656;2022-08-19T01:17:13;14.47;;;12.90;;
1765;SDS011;880;52.452;8.656;2022-08-19T01:19:42;15.30;;;13.80;;
1765;SDS011;880;52.452;8.656;2022-08-19T01:24:59;17.60;;;16.00;;
1765;SDS011;880;52.452;8.656;2022-08-19T01:27:36;16.00;;;14.60;;
1765;SDS011;880;52.452;8.656;2022-08-19T01:30:15;16.90;;;15.33;;
1765;SDS011;880;52.452;8.656;2022-08-19T01:32:50;17.50;;;15.60;;
1765;SDS011;880;52.452;8.656;2022-08-19T01:35:20;17.53;;;15.80;;
1765;SDS011;880;52.452;8.656;2022-08-19T01:40:23;19.13;;;17.30;;
1765;SDS011;880;52.452;8.656;2022-08-19T01:42:55;19.33;;;17.63;;
1765;SDS011;880;52.452;8.656;2022-08-19T01:45:22;19.40;;;17.50;;
1765;SDS011;880;52.452;8.656;2022-08-19T01:47:52;19.50;;;17.77;;
1765;SDS011;880;52.452;8.656;2022-08-19T01:50:28;18.90;;;17.00;;
1765;SDS011;880;52.452;8.656;2022-08-19T01:52:57;18.50;;;16.80;;
1765;SDS011;880;52.452;8.656;2022-08-19T01:55:32;18.50;;;16.80;;
1765;SDS011;880;52.452;8.656;2022-08-19T01:58:06;20.17;;;18.27;;
1765;SDS011;880;52.452;8.656;2022-08-19T02:00:38;19.37;;;17.40;;
1765;SDS011;880;52.452;8.656;2022-08-19T02:03:06;19.23;;;17.33;;
1765;SDS011;880;52.452;8.656;2022-08-19T02:05:35;17.33;;;15.63;;
1765;SDS011;880;52.452;8.656;2022-08-19T02:08:02;19.67;;;17.70;;
1765;SDS011;880;52.452;8.656;2022-08-19T02:10:30;17.10;;;15.33;;
1765;SDS011;880;52.452;8.656;2022-08-19T02:12:58;17.80;;;16.10;;
1765;SDS011;880;52.452;8.656;2022-08-19T02:15:25;17.67;;;16.13;;
1765;SDS011;880;52.452;8.656;2022-08-19T02:17:52;18.37;;;16.53;;
1765;SDS011;880;52.452;8.656;2022-08-19T02:20:19;20.00;;;18.10;;
1765;SDS011;880;52.452;8.656;2022-08-19T02:22:46;18.90;;;16.90;;
1765;SDS011;880;52.452;8.656;2022-08-19T02:25:13;19.87;;;17.87;;
1765;SDS011;880;52.452;8.656;2022-08-19T02:27:41;19.60;;;17.60;;
1765;SDS011;880;52.452;8.656;2022-08-19T02:30:11;18.43;;;16.73;;
1765;SDS011;880;52.452;8.656;2022-08-19T02:32:42;18.37;;;16.47;;
1765;SDS011;880;52.452;8.656;2022-08-19T02:35:11;19.67;;;17.70;;
1765;SDS011;880;52.452;8.656;2022-08-19T02:37:40;18.47;;;16.50;;
1765;SDS011;880;52.452;8.656;2022-08-19T02:40:27;20.53;;;18.40;;
1765;SDS011;880;52.452;8.656;2022-08-19T02:42:58;19.13;;;17.33;;
1765;SDS011;880;52.452;8.656;2022-08-19T02:45:25;19.17;;;17.30;;
1765;SDS011;880;52.452;8.656;2022-08-19T02:47:52;19.37;;;17.57;;
1765;SDS011;880;52.452;8.656;2022-08-19T02:50:19;22.40;;;19.80;;
1765;SDS011;880;52.452;8.656;2022-08-19T02:52:46;19.57;;;17.67;;
1765;SDS011;880;52.452;8.656;2022-08-19T02:55:13;20.30;;;18.23;;
1765;SDS011;880;52.452;8.656;2022-08-19T02:57:40;19.50;;;17.50;;
1765;SDS011;880;52.452;8.656;2022-08-19T03:00:08;21.70;;;19.57;;
1765;SDS011;880;52.452;8.656;2022-08-19T03:02:39;21.93;;;19.57;;
1765;SDS011;880;52.452;8.656;2022-08-19T03:05:07;21.07;;;18.80;;
1765;SDS011;880;52.452;8.656;2022-08-19T03:07:36;23.90;;;21.30;;
1765;SDS011;880;52.452;8.656;2022-08-19T03:10:03;24.43;;;20.53;;
1765;SDS011;880;52.452;8.656;2022-08-19T03:12:34;24.13;;;21.30;;
1765;SDS011;880;52.452;8.656;2022-08-19T03:15:06;23.57;;;21.03;;
1765;SDS011;880;52.452;8.656;2022-08-19T03:17:34;23.97;;;21.60;;
1765;SDS011;880;52.452;8.656;2022-08-19T03:20:02;21.63;;;19.33;;
1765;SDS011;880;52.452;8.656;2022-08-19T03:22:30;21.67;;;19.37;;
1765;SDS011;880;52.452;8.656;2022-08-19T03:24:57;21.63;;;19.53;;
1765;SDS011;880;52.452;8.656;2022-08-19T03:27:25;21.93;;;18.93;;
1765;SDS011;880;52.452;8.656;2022-08-19T03:30:00;22.63;;;20.43;;
1765;SDS011;880;52.452;8.656;2022-08-19T03:32:27;23.03;;;20.73;;
1765;SDS011;880;52.452;8.656;2022-08-19T03:34:58;23.30;;;19.97;;
1765;SDS011;880;52.452;8.656;2022-08-19T03:37:25;22.30;;;20.00;;
1765;SDS011;880;52.452;8.656;2022-08-19T03:39:52;22.03;;;19.77;;
1765;SDS011;880;52.452;8.656;2022-08-19T03:42:19;23.00;;;19.70;;
1765;SDS011;880;52.452;8.656;2022-08-19T03:45:06;22.40;;;18.57;;
1765;SDS011;880;52.452;8.656;2022-08-19T03:47:34;23.30;;;20.80;;
1765;SDS011;880;52.452;8.656;2022-08-19T03:50:01;22.83;;;19.00;;
1765;SDS011;880;52.452;8.656;2022-08-19T03:52:28;20.30;;;18.20;;
1765;SDS011;880;52.452;8.656;2022-08-19T03:54:55;22.27;;;19.87;;
1765;SDS011;880;52.452;8.656;2022-08-19T03:57:22;23.07;;;19.63;;
1765;SDS011;880;52.452;8.656;2022-08-19T03:59:57;20.63;;;18.43;;
1765;SDS011;880;52.452;8.656;2022-08-19T04:02:39;22.47;;;20.07;;
1765;SDS011;880;52.452;8.656;2022-08-19T04:05:23;21.67;;;19.33;;
1765;SDS011;880;52.452;8.656;2022-08-19T04:07:53;25.40;;;20.10;;
1765;SDS011;880;52.452;8.656;2022-08-19T04:10:21;23.07;;;20.57;;
1765;SDS011;880;52.452;8.656;2022-08-19T04:12:48;27.70;;;22.33;;
1765;SDS011;880;52.452;8.656;2022-08-19T04:15:16;24.87;;;20.63;;
1765;SDS011;880;52.452;8.656;2022-08-19T04:17:43;32.10;;;21.70;;
1765;SDS011;880;52.452;8.656;2022-08-19T04:20:10;30.83;;;22.30;;
1765;SDS011;880;52.452;8.656;2022-08-19T04:22:37;35.87;;;22.03;;
1765;SDS011;880;52.452;8.656;2022-08-19T04:25:04;28.77;;;21.63;;
1765;SDS011;880;52.452;8.656;2022-08-19T04:27:31;24.77;;;21.00;;
1765;SDS011;880;52.452;8.656;2022-08-19T04:29:59;30.30;;;23.20;;
1765;SDS011;880;52.452;8.656;2022-08-19T04:32:26;29.57;;;22.83;;
1765;SDS011;880;52.452;8.656;2022-08-19T04:34:53;28.90;;;23.60;;
1765;SDS011;880;52.452;8.656;2022-08-19T04:37:41;28.87;;;23.23;;
1765;SDS011;880;52.452;8.656;2022-08-19T04:40:08;65.43;;;25.47;;
1765;SDS011;880;52.452;8.656;2022-08-19T04:42:55;57.27;;;24.20;;
1765;SDS011;880;52.452;8.656;2022-08-19T04:45:22;53.77;;;25.20;;
1765;SDS011;880;52.452;8.656;2022-08-19T04:47:49;74.50;;;26.30;;
1765;SDS011;880;52.452;8.656;2022-08-19T04:50:42;38.97;;;25.37;;
1765;SDS011;880;52.452;8.656;2022-08-19T04:53:09;33.85;;;27.88;;
1765;SDS011;880;52.452;8.656;2022-08-19T04:55:40;47.73;;;26.33;;
1765;SDS011;880;52.452;8.656;2022-08-19T04:58:08;53.77;;;24.03;;
1765;SDS011;880;52.452;8.656;2022-08-19T05:00:37;66.97;;;22.13;;
1765;SDS011;880;52.452;8.656;2022-08-19T05:03:06;136.73;;;26.20;;
1765;SDS011;880;52.452;8.656;2022-08-19T05:05:37;93.63;;;25.53;;
1765;SDS011;880;52.452;8.656;2022-08-19T05:08:11;159.17;;;28.27;;
1765;SDS011;880;52.452;8.656;2022-08-19T05:10:41;56.40;;;24.90;;
1765;SDS011;880;52.452;8.656;2022-08-19T05:13:08;43.67;;;26.23;;
1765;SDS011;880;52.452;8.656;2022-08-19T05:15:37;33.97;;;25.50;;
1765;SDS011;880;52.452;8.656;2022-08-19T05:18:04;36.77;;;25.77;;
1765;SDS011;880;52.452;8.656;2022-08-19T05:20:50;84.43;;;26.33;;
1765;SDS011;880;52.452;8.656;2022-08-19T05:23:36;43.67;;;24.83;;
1765;SDS011;880;52.452;8.656;2022-08-19T05:26:03;44.93;;;26.47;;
1765;SDS011;880;52.452;8.656;2022-08-19T05:28:30;66.13;;;24.80;;
1765;SDS011;880;52.452;8.656;2022-08-19T05:30:57;49.60;;;25.87;;
1765;SDS011;880;52.452;8.656;2022-08-19T05:33:24;49.40;;;23.90;;
1765;SDS011;880;52.452;8.656;2022-08-19T05:35:51;81.80;;;25.03;;
1765;SDS011;880;52.452;8.656;2022-08-19T05:38:18;49.57;;;24.30;;
1765;SDS011;880;52.452;8.656;2022-08-19T05:40:46;47.90;;;26.93;;
1765;SDS011;880;52.452;8.656;2022-08-19T05:43:14;39.07;;;26.10;;
1765;SDS011;880;52.452;8.656;2022-08-19T05:45:42;38.70;;;25.93;;
1765;SDS011;880;52.452;8.656;2022-08-19T05:48:10;31.90;;;24.97;;
1765;SDS011;880;52.452;8.656;2022-08-19T05:50:39;30.63;;;23.77;;
1765;SDS011;880;52.452;8.656;2022-08-19T05:53:07;30.93;;;25.17;;
1765;SDS011;880;52.452;8.656;2022-08-19T05:55:35;29.50;;;23.53;;
1765;SDS011;880;52.452;8.656;2022-08-19T05:58:04;31.20;;;25.30;;
1765;SDS011;880;52.452;8.656;2022-08-19T06:00:34;35.87;;;25.80;;
1765;SDS011;880;52.452;8.656;2022-08-19T06:03:03;38.03;;;27.70;;
1765;SDS011;880;52.452;8.656;2022-08-19T06:05:38;33.57;;;28.90;;
1765;SDS011;880;52.452;8.656;2022-08-19T06:08:16;39.63;;;28.83;;
1765;SDS011;880;52.452;8.656;2022-08-19T06:10:44;38.13;;;26.00;;
1765;SDS011;880;52.452;8.656;2022-08-19T06:13:11;35.57;;;28.07;;
1765;SDS011;880;52.452;8.656;2022-08-19T06:15:38;39.20;;;29.20;;
1765;SDS011;880;52.452;8.656;2022-08-19T06:18:07;34.47;;;26.73;;
1765;SDS011;880;52.452;8.656;2022-08-19T06:20:34;40.67;;;29.53;;
1765;SDS011;880;52.452;8.656;2022-08-19T06:23:21;37.83;;;30.50;;
1765;SDS011;880;52.452;8.656;2022-08-19T06:25:49;41.20;;;30.80;;
1765;SDS011;880;52.452;8.656;2022-08-19T06:28:16;29.37;;;23.20;;
1765;SDS011;880;52.452;8.656;2022-08-19T06:30:44;35.43;;;28.40;;
1765;SDS011;880;52.452;8.656;2022-08-19T06:33:11;41.57;;;31.23;;
1765;SDS011;880;52.452;8.656;2022-08-19T06:35:38;35.33;;;27.70;;
1765;SDS011;880;52.452;8.656;2022-08-19T06:38:08;31.03;;;24.90;;
1765;SDS011;880;52.452;8.656;2022-08-19T06:40:35;33.43;;;26.70;;
1765;SDS011;880;52.452;8.656;2022-08-19T06:43:04;24.57;;;20.10;;
1765;SDS011;880;52.452;8.656;2022-08-19T06:45:36;33.30;;;25.40;;
1765;SDS011;880;52.452;8.656;2022-08-19T06:48:05;32.97;;;26.13;;
1765;SDS011;880;52.452;8.656;2022-08-19T06:50:33;28.63;;;23.10;;
1765;SDS011;880;52.452;8.656;2022-08-19T06:53:02;33.00;;;25.60;;
1765;SDS011;880;52.452;8.656;2022-08-19T06:55:29;28.50;;;22.63;;
1765;SDS011;880;52.452;8.656;2022-08-19T06:58:01;32.37;;;24.73;;
1765;SDS011;880;52.452;8.656;2022-08-19T07:00:30;30.80;;;24.07;;
1765;SDS011;880;52.452;8.656;2022-08-19T07:03:02;30.47;;;25.57;;
1765;SDS011;880;52.452;8.656;2022-08-19T07:05:40;30.30;;;24.10;;
1765;SDS011;880;52.452;8.656;2022-08-19T07:08:11;30.33;;;25.10;;
1765;SDS011;880;52.452;8.656;2022-08-19T07:10:42;28.17;;;24.17;;
1765;SDS011;880;52.452;8.656;2022-08-19T07:13:10;24.20;;;21.33;;
1765;SDS011;880;52.452;8.656;2022-08-19T07:15:38;25.67;;;22.80;;
1765;SDS011;880;52.452;8.656;2022-08-19T07:18:05;23.60;;;20.90;;
1765;SDS011;880;52.452;8.656;2022-08-19T07:20:36;25.70;;;22.20;;
1765;SDS011;880;52.452;8.656;2022-08-19T07:23:07;23.27;;;20.27;;
1765;SDS011;880;52.452;8.656;2022-08-19T07:25:36;22.67;;;19.57;;
1765;SDS011;880;52.452;8.656;2022-08-19T07:28:06;20.33;;;18.30;;
1765;SDS011;880;52.452;8.656;2022-08-19T07:30:49;19.93;;;17.87;;
1765;SDS011;880;52.452;8.656;2022-08-19T07:33:18;21.70;;;18.50;;
1765;SDS011;880;52.452;8.656;2022-08-19T07:35:45;20.50;;;18.07;;
1765;SDS011;880;52.452;8.656;2022-08-19T07:38:12;17.60;;;15.90;;
1765;SDS011;880;52.452;8.656;2022-08-19T07:40:39;18.53;;;16.63;;
1765;SDS011;880;52.452;8.656;2022-08-19T07:43:09;18.87;;;16.83;;
1765;SDS011;880;52.452;8.656;2022-08-19T07:45:42;17.93;;;16.13;;
1765;SDS011;880;52.452;8.656;2022-08-19T07:48:09;17.77;;;15.93;;
1765;SDS011;880;52.452;8.656;2022-08-19T07:50:36;17.07;;;15.47;;
1765;SDS011;880;52.452;8.656;2022-08-19T07:53:03;19.77;;;17.93;;
1765;SDS011;880;52.452;8.656;2022-08-19T07:55:30;19.73;;;17.63;;
1765;SDS011;880;52.452;8.656;2022-08-19T07:58:08;18.33;;;16.63;;
1765;SDS011;880;52.452;8.656;2022-08-19T08:00:38;17.97;;;15.93;;
1765;SDS011;880;52.452;8.656;2022-08-19T08:03:05;17.37;;;15.73;;
1765;SDS011;880;52.452;8.656;2022-08-19T08:05:32;19.03;;;17.03;;
1765;SDS011;880;52.452;8.656;2022-08-19T08:08:18;14.83;;;13.53;;
1765;SDS011;880;52.452;8.656;2022-08-19T08:11:13;16.57;;;14.97;;
1765;SDS011;880;52.452;8.656;2022-08-19T08:13:45;16.73;;;15.13;;
1765;SDS011;880;52.452;8.656;2022-08-19T08:16:29;13.80;;;12.50;;
1765;SDS011;880;52.452;8.656;2022-08-19T08:19:05;16.90;;;15.40;;
1765;SDS011;880;52.452;8.656;2022-08-19T08:21:48;14.63;;;13.23;;
1765;SDS011;880;52.452;8.656;2022-08-19T08:24:16;14.50;;;13.10;;
1765;SDS011;880;52.452;8.656;2022-08-19T08:26:44;15.73;;;11.20;;
1765;SDS011;880;52.452;8.656;2022-08-19T08:29:17;12.77;;;11.53;;
1765;SDS011;880;52.452;8.656;2022-08-19T08:31:45;13.17;;;11.90;;
1765;SDS011;880;52.452;8.656;2022-08-19T08:34:23;10.47;;;9.53;;
1765;SDS011;880;52.452;8.656;2022-08-19T08:36:50;12.40;;;11.20;;
1765;SDS011;880;52.452;8.656;2022-08-19T08:39:19;11.30;;;10.27;;
1765;SDS011;880;52.452;8.656;2022-08-19T08:47:28;8.43;;;6.77;;
1765;SDS011;880;52.452;8.656;2022-08-19T08:52:47;8.97;;;8.23;;
1765;SDS011;880;52.452;8.656;2022-08-19T08:55:22;8.37;;;7.73;;
1765;SDS011;880;52.452;8.656;2022-08-19T08:58:06;7.93;;;7.30;;
1765;SDS011;880;52.452;8.656;2022-08-19T09:00:43;8.03;;;7.33;;
1765;SDS011;880;52.452;8.656;2022-08-19T09:03:23;7.53;;;6.87;;
1765;SDS011;880;52.452;8.656;2022-08-19T09:06:01;7.40;;;6.80;;
1765;SDS011;880;52.452;8.656;2022-08-19T09:17:17;7.73;;;7.13;;
1765;SDS011;880;52.452;8.656;2022-08-19T09:19:54;10.80;;;7.40;;
1765;SDS011;880;52.452;8.656;2022-08-19T09:22:26;7.13;;;6.50;;
1765;SDS011;880;52.452;8.656;2022-08-19T09:24:54;8.10;;;7.20;;
1765;SDS011;880;52.452;8.656;2022-08-19T09:27:22;7.87;;;7.07;;
1765;SDS011;880;52.452;8.656;2022-08-19T09:30:09;9.60;;;8.60;;
1765;SDS011;880;52.452;8.656;2022-08-19T09:32:41;7.40;;;6.80;;
1765;SDS011;880;52.452;8.656;2022-08-19T09:35:09;7.70;;;7.00;;
1765;SDS011;880;52.452;8.656;2022-08-19T09:37:38;7.43;;;6.77;;
1765;SDS011;880;52.452;8.656;2022-08-19T09:40:06;6.37;;;5.87;;
1765;SDS011;880;52.452;8.656;2022-08-19T09:42:37;5.73;;;5.17;;
1765;SDS011;880;52.452;8.656;2022-08-19T09:45:16;7.60;;;6.50;;
1765;SDS011;880;52.452;8.656;2022-08-19T09:47:48;5.53;;;5.00;;
1765;SDS011;880;52.452;8.656;2022-08-19T09:50:20;5.10;;;4.70;;
1765;SDS011;880;52.452;8.656;2022-08-19T09:52:49;6.17;;;5.60;;
1765;SDS011;880;52.452;8.656;2022-08-19T09:55:23;6.20;;;5.60;;
1765;SDS011;880;52.452;8.656;2022-08-19T09:57:58;6.20;;;5.30;;
1765;SDS011;880;52.452;8.656;2022-08-19T10:00:27;5.27;;;4.77;;
1765;SDS011;880;52.452;8.656;2022-08-19T10:02:54;5.70;;;4.80;;
1765;SDS011;880;52.452;8.656;2022-08-19T10:05:21;4.67;;;4.10;;
1765;SDS011;880;52.452;8.656;2022-08-19T10:08:08;6.00;;;4.03;;
1765;SDS011;880;52.452;8.656;2022-08-19T10:10:42;4.50;;;4.20;;
1765;SDS011;880;52.452;8.656;2022-08-19T10:13:13;4.87;;;4.57;;
1765;SDS011;880;52.452;8.656;2022-08-19T10:15:42;4.07;;;3.67;;
1765;SDS011;880;52.452;8.656;2022-08-19T10:18:13;3.70;;;3.40;;
1765;SDS011;880;52.452;8.656;2022-08-19T10:20:45;4.50;;;4.10;;
1765;SDS011;880;52.452;8.656;2022-08-19T10:23:17;4.30;;;4.00;;
1765;SDS011;880;52.452;8.656;2022-08-19T10:25:46;3.33;;;3.13;;
1765;SDS011;880;52.452;8.656;2022-08-19T10:28:14;3.67;;;3.47;;
1765;SDS011;880;52.452;8.656;2022-08-19T10:30:44;3.93;;;3.53;;
1765;SDS011;880;52.452;8.656;2022-08-19T10:33:12;3.80;;;3.50;;
1765;SDS011;880;52.452;8.656;2022-08-19T10:36:06;4.43;;;3.87;;
1765;SDS011;880;52.452;8.656;2022-08-19T10:38:44;4.33;;;3.93;;
1765;SDS011;880;52.452;8.656;2022-08-19T10:41:22;3.23;;;3.03;;
1765;SDS011;880;52.452;8.656;2022-08-19T10:43:52;3.60;;;3.30;;
1765;SDS011;880;52.452;8.656;2022-08-19T10:46:22;3.83;;;3.53;;
1765;SDS011;880;52.452;8.656;2022-08-19T10:48:50;4.43;;;3.20;;
1765;SDS011;880;52.452;8.656;2022-08-19T10:51:19;3.93;;;3.47;;
1765;SDS011;880;52.452;8.656;2022-08-19T10:54:14;3.30;;;3.10;;
1765;SDS011;880;52.452;8.656;2022-08-19T10:56:41;3.20;;;3.00;;
1765;SDS011;880;52.452;8.656;2022-08-19T10:59:18;3.40;;;2.60;;
1765;SDS011;880;52.452;8.656;2022-08-19T11:01:52;2.20;;;2.10;;
1765;SDS011;880;52.452;8.656;2022-08-19T11:04:22;2.30;;;2.20;;
1765;SDS011;880;52.452;8.656;2022-08-19T11:06:55;2.37;;;2.27;;
1765;SDS011;880;52.452;8.656;2022-08-19T11:09:23;3.20;;;2.90;;
1765;SDS011;880;52.452;8.656;2022-08-19T11:11:59;2.47;;;2.27;;
1765;SDS011;880;52.452;8.656;2022-08-19T11:14:29;2.37;;;2.20;;
1765;SDS011;880;52.452;8.656;2022-08-19T11:16:59;2.60;;;1.70;;
1765;SDS011;880;52.452;8.656;2022-08-19T11:19:27;2.37;;;2.27;;
1765;SDS011;880;52.452;8.656;2022-08-19T11:21:55;4.00;;;2.10;;
1765;SDS011;880;52.452;8.656;2022-08-19T11:24:25;2.13;;;1.97;;
1765;SDS011;880;52.452;8.656;2022-08-19T11:26:54;1.93;;;1.83;;
1765;SDS011;880;52.452;8.656;2022-08-19T11:29:28;3.90;;;2.40;;
1765;SDS011;880;52.452;8.656;2022-08-19T11:31:56;2.90;;;2.07;;
1765;SDS011;880;52.452;8.656;2022-08-19T11:34:24;2.50;;;1.90;;
1765;SDS011;880;52.452;8.656;2022-08-19T11:36:54;3.03;;;2.17;;
1765;SDS011;880;52.452;8.656;2022-08-19T11:39:27;3.77;;;2.50;;
1765;SDS011;880;52.452;8.656;2022-08-19T11:42:00;2.70;;;2.50;;
1765;SDS011;880;52.452;8.656;2022-08-19T11:44:47;3.07;;;2.87;;
1765;SDS011;880;52.452;8.656;2022-08-19T11:47:15;2.90;;;2.80;;
1765;SDS011;880;52.452;8.656;2022-08-19T11:49:42;3.40;;;3.20;;
1765;SDS011;880;52.452;8.656;2022-08-19T11:52:09;2.33;;;2.23;;
1765;SDS011;880;52.452;8.656;2022-08-19T11:54:36;2.73;;;2.63;;
1765;SDS011;880;52.452;8.656;2022-08-19T11:57:04;3.27;;;3.10;;
1765;SDS011;880;52.452;8.656;2022-08-19T11:59:31;2.57;;;2.37;;
1765;SDS011;880;52.452;8.656;2022-08-19T12:01:58;2.63;;;2.47;;
1765;SDS011;880;52.452;8.656;2022-08-19T12:04:25;3.30;;;3.00;;
1765;SDS011;880;52.452;8.656;2022-08-19T12:06:52;3.97;;;3.67;;
1765;SDS011;880;52.452;8.656;2022-08-19T12:09:19;3.63;;;3.43;;
1765;SDS011;880;52.452;8.656;2022-08-19T12:11:48;2.93;;;2.73;;
1765;SDS011;880;52.452;8.656;2022-08-19T12:14:16;2.97;;;2.77;;
1765;SDS011;880;52.452;8.656;2022-08-19T12:16:45;2.80;;;2.50;;
1765;SDS011;880;52.452;8.656;2022-08-19T12:19:18;2.50;;;2.30;;
1765;SDS011;880;52.452;8.656;2022-08-19T12:21:48;2.60;;;2.27;;
1765;SDS011;880;52.452;8.656;2022-08-19T12:24:15;2.40;;;2.30;;
1765;SDS011;880;52.452;8.656;2022-08-19T12:26:46;2.00;;;1.90;;
1765;SDS011;880;52.452;8.656;2022-08-19T12:29:19;2.03;;;1.93;;
1765;SDS011;880;52.452;8.656;2022-08-19T12:31:49;2.37;;;2.27;;
1765;SDS011;880;52.452;8.656;2022-08-19T12:34:17;2.30;;;2.20;;
1765;SDS011;880;52.452;8.656;2022-08-19T12:36:46;2.17;;;2.07;;
1765;SDS011;880;52.452;8.656;2022-08-19T12:39:15;2.30;;;2.10;;
1765;SDS011;880;52.452;8.656;2022-08-19T12:41:42;2.30;;;2.20;;
1765;SDS011;880;52.452;8.656;2022-08-19T12:44:19;2.53;;;2.43;;
1765;SDS011;880;52.452;8.656;2022-08-19T12:46:54;3.03;;;2.83;;
1765;SDS011;880;52.452;8.656;2022-08-19T12:49:22;3.07;;;2.87;;
1765;SDS011;880;52.452;8.656;2022-08-19T12:52:17;3.07;;;2.87;;
1765;SDS011;880;52.452;8.656;2022-08-19T12:54:48;3.47;;;2.67;;
1765;SDS011;880;52.452;8.656;2022-08-19T12:57:20;2.93;;;2.73;;
1765;SDS011;880;52.452;8.656;2022-08-19T12:59:57;2.97;;;2.77;;
1765;SDS011;880;52.452;8.656;2022-08-19T13:02:26;3.10;;;3.00;;
1765;SDS011;880;52.452;8.656;2022-08-19T13:04:53;3.20;;;2.70;;
1765;SDS011;880;52.452;8.656;2022-08-19T13:07:20;2.30;;;2.20;;
1765;SDS011;880;52.452;8.656;2022-08-19T13:09:47;2.80;;;2.67;;
1765;SDS011;880;52.452;8.656;2022-08-19T13:12:18;2.20;;;2.10;;
1765;SDS011;880;52.452;8.656;2022-08-19T13:14:50;3.80;;;2.90;;
1765;SDS011;880;52.452;8.656;2022-08-19T13:17:18;2.90;;;2.70;;
1765;SDS011;880;52.452;8.656;2022-08-19T13:19:46;3.30;;;3.10;;
1765;SDS011;880;52.452;8.656;2022-08-19T13:22:13;3.40;;;3.20;;
1765;SDS011;880;52.452;8.656;2022-08-19T13:24:40;4.30;;;3.93;;
1765;SDS011;880;52.452;8.656;2022-08-19T13:27:12;4.00;;;3.70;;
1765;SDS011;880;52.452;8.656;2022-08-19T13:29:42;4.13;;;3.83;;
1765;SDS011;880;52.452;8.656;2022-08-19T13:32:28;3.43;;;3.13;;
1765;SDS011;880;52.452;8.656;2022-08-19T13:35:15;3.60;;;3.40;;
1765;SDS011;880;52.452;8.656;2022-08-19T13:37:43;3.90;;;3.60;;
1765;SDS011;880;52.452;8.656;2022-08-19T13:40:15;2.90;;;2.70;;
1765;SDS011;880;52.452;8.656;2022-08-19T13:42:47;4.10;;;3.87;;
1765;SDS011;880;52.452;8.656;2022-08-19T13:45:16;3.37;;;3.17;;
1765;SDS011;880;52.452;8.656;2022-08-19T13:47:55;4.43;;;3.90;;
1765;SDS011;880;52.452;8.656;2022-08-19T13:50:26;3.80;;;3.60;;
1765;SDS011;880;52.452;8.656;2022-08-19T13:52:57;3.57;;;3.27;;
1765;SDS011;880;52.452;8.656;2022-08-19T13:55:24;4.50;;;4.10;;
1765;SDS011;880;52.452;8.656;2022-08-19T13:57:53;4.43;;;3.50;;
1765;SDS011;880;52.452;8.656;2022-08-19T14:00:26;4.07;;;3.77;;
1765;SDS011;880;52.452;8.656;2022-08-19T14:02:56;3.67;;;3.37;;
1765;SDS011;880;52.452;8.656;2022-08-19T14:05:24;3.40;;;3.20;;
1765;SDS011;880;52.452;8.656;2022-08-19T14:07:53;4.70;;;4.27;;
1765;SDS011;880;52.452;8.656;2022-08-19T14:10:21;4.63;;;3.97;;
1765;SDS011;880;52.452;8.656;2022-08-19T14:12:56;3.30;;;3.10;;
1765;SDS011;880;52.452;8.656;2022-08-19T14:15:27;4.03;;;3.73;;
1765;SDS011;880;52.452;8.656;2022-08-19T14:17:55;4.80;;;3.50;;
1765;SDS011;880;52.452;8.656;2022-08-19T14:20:23;4.20;;;3.90;;
1765;SDS011;880;52.452;8.656;2022-08-19T14:22:51;4.03;;;3.73;;
1765;SDS011;880;52.452;8.656;2022-08-19T14:25:25;3.47;;;3.23;;
1765;SDS011;880;52.452;8.656;2022-08-19T14:27:55;4.20;;;3.90;;
1765;SDS011;880;52.452;8.656;2022-08-19T14:30:27;3.70;;;3.40;;
1765;SDS011;880;52.452;8.656;2022-08-19T14:32:58;4.00;;;3.70;;
1765;SDS011;880;52.452;8.656;2022-08-19T14:35:28;3.47;;;3.13;;
1765;SDS011;880;52.452;8.656;2022-08-19T14:38:00;3.80;;;3.50;;
1765;SDS011;880;52.452;8.656;2022-08-19T14:40:31;3.57;;;3.27;;
1765;SDS011;880;52.452;8.656;2022-08-19T14:42:59;3.10;;;2.90;;
1765;SDS011;880;52.452;8.656;2022-08-19T14:45:34;3.90;;;3.60;;
1765;SDS011;880;52.452;8.656;2022-08-19T14:48:04;3.57;;;3.37;;
1765;SDS011;880;52.452;8.656;2022-08-19T14:50:44;3.53;;;3.33;;
1765;SDS011;880;52.452;8.656;2022-08-19T14:53:11;3.70;;;3.50;;
1765;SDS011;880;52.452;8.656;2022-08-19T14:55:45;3.57;;;3.27;;
1765;SDS011;880;52.452;8.656;2022-08-19T14:58:12;4.07;;;3.70;;
1765;SDS011;880;52.452;8.656;2022-08-19T15:00:56;4.53;;;4.20;;
1765;SDS011;880;52.452;8.656;2022-08-19T15:03:25;4.10;;;3.70;;
1765;SDS011;880;52.452;8.656;2022-08-19T15:05:53;3.07;;;2.93;;
1765;SDS011;880;52.452;8.656;2022-08-19T15:08:20;3.40;;;3.20;;
1765;SDS011;880;52.452;8.656;2022-08-19T15:10:48;3.70;;;3.37;;
1765;SDS011;880;52.452;8.656;2022-08-19T15:13:15;3.90;;;3.60;;
1765;SDS011;880;52.452;8.656;2022-08-19T15:15:42;4.23;;;3.83;;
1765;SDS011;880;52.452;8.656;2022-08-19T15:18:09;3.87;;;3.57;;
1765;SDS011;880;52.452;8.656;2022-08-19T15:20:37;4.03;;;3.73;;
1765;SDS011;880;52.452;8.656;2022-08-19T15:23:07;4.23;;;3.93;;
1765;SDS011;880;52.452;8.656;2022-08-19T15:25:34;4.07;;;3.67;;
1765;SDS011;880;52.452;8.656;2022-08-19T15:28:01;3.20;;;3.00;;
1765;SDS011;880;52.452;8.656;2022-08-19T15:30:30;3.40;;;3.20;;
1765;SDS011;880;52.452;8.656;2022-08-19T15:32:58;2.80;;;2.63;;
1765;SDS011;880;52.452;8.656;2022-08-19T15:35:26;3.30;;;3.00;;
1765;SDS011;880;52.452;8.656;2022-08-19T15:37:54;3.53;;;3.27;;
1765;SDS011;880;52.452;8.656;2022-08-19T15:40:22;3.20;;;2.90;;
1765;SDS011;880;52.452;8.656;2022-08-19T15:42:51;3.70;;;3.20;;
1765;SDS011;880;52.452;8.656;2022-08-19T15:45:19;3.30;;;3.10;;
1765;SDS011;880;52.452;8.656;2022-08-19T15:47:47;3.77;;;3.47;;
1765;SDS011;880;52.452;8.656;2022-08-19T15:50:16;3.00;;;2.80;;
1765;SDS011;880;52.452;8.656;2022-08-19T15:52:56;3.00;;;2.80;;
1765;SDS011;880;52.452;8.656;2022-08-19T15:55:27;3.30;;;3.00;;
1765;SDS011;880;52.452;8.656;2022-08-19T15:58:01;3.30;;;3.10;;
1765;SDS011;880;52.452;8.656;2022-08-19T16:01:04;3.40;;;3.20;;
1765;SDS011;880;52.452;8.656;2022-08-19T16:03:53;2.93;;;2.83;;
1765;SDS011;880;52.452;8.656;2022-08-19T16:06:48;3.93;;;3.00;;